sensor_id;sensor_type;location;lat;lon;timestamp;pressure;altitude;pressure_sealevel;temperature;humidity
71194;BME280;58903;47.210;8.618;2023-07-28T00:01:13;93744.94;;;28.84;40.89
71194;BME280;58903;47.210;8.618;2023-07-28T00:03:45;93737.75;;;28.81;41.00
71194;BME280;58903;47.210;8.618;2023-07-28T00:06:14;93736.28;;;28.80;41.15
71194;BME280;58903;47.210;8.618;2023-07-28T00:12:19;93729.78;;;28.78;40.99
71194;BME280;58903;47.210;8.618;2023-07-28T00:15:18;93732.03;;;28.79;40.76
71194;BME280;58903;47.210;8.618;2023-07-28T00:17:53;93733.50;;;28.80;41.62
71194;BME280;58903;47.210;8.618;2023-07-28T00:20:27;93729.78;;;28.78;40.71
71194;BME280;58903;47.210;8.618;2023-07-28T00:23:12;93729.28;;;28.79;41.50
71194;BME280;58903;47.210;8.618;2023-07-28T00:25:38;93703.94;;;28.75;41.00
71194;BME280;58903;47.210;8.618;2023-07-28T00:28:11;93714.50;;;28.77;41.34
71194;BME280;58903;47.210;8.618;2023-07-28T00:30:37;93709.69;;;28.77;41.17
71194;BME280;58903;47.210;8.618;2023-07-28T00:33:20;93698.63;;;28.77;41.01
71194;BME280;58903;47.210;8.618;2023-07-28T00:39:09;93699.91;;;28.76;41.01
71194;BME280;58903;47.210;8.618;2023-07-28T00:41:50;93694.94;;;28.75;41.41
71194;BME280;58903;47.210;8.618;2023-07-28T00:44:16;93690.47;;;28.72;40.64
71194;BME280;58903;47.210;8.618;2023-07-28T00:46:59;93690.84;;;28.76;40.76
71194;BME280;58903;47.210;8.618;2023-07-28T00:49:27;93697.13;;;28.76;40.81
71194;BME280;58903;47.210;8.618;2023-07-28T00:52:02;93687.56;;;28.77;40.90
71194;BME280;58903;47.210;8.618;2023-07-28T00:54:30;93691.41;;;28.74;40.93
71194;BME280;58903;47.210;8.618;2023-07-28T00:57:14;93690.84;;;28.76;40.63
71194;BME280;58903;47.210;8.618;2023-07-28T00:59:41;93684.38;;;28.73;41.13
71194;BME280;58903;47.210;8.618;2023-07-28T01:02:09;93691.41;;;28.74;40.52
71194;BME280;58903;47.210;8.618;2023-07-28T01:04:48;93683.47;;;28.71;40.89
71194;BME280;58903;47.210;8.618;2023-07-28T01:07:34;93686.44;;;28.73;40.44
71194;BME280;58903;47.210;8.618;2023-07-28T01:10:37;93686.97;;;28.71;41.41
71194;BME280;58903;47.210;8.618;2023-07-28T01:13:14;93686.78;;;28.69;41.13
71194;BME280;58903;47.210;8.618;2023-07-28T01:15:54;93685.13;;;28.66;41.23
71194;BME280;58903;47.210;8.618;2023-07-28T01:18:22;93684.75;;;28.70;41.29
71194;BME280;58903;47.210;8.618;2023-07-28T01:21:03;93689.53;;;28.69;41.12
71194;BME280;58903;47.210;8.618;2023-07-28T01:26:39;93691.56;;;28.69;40.83
71194;BME280;58903;47.210;8.618;2023-07-28T01:29:06;93684.75;;;28.70;40.99
71194;BME280;58903;47.210;8.618;2023-07-28T01:31:51;93686.78;;;28.69;41.36
71194;BME280;58903;47.210;8.618;2023-07-28T01:34:22;93690.09;;;28.68;41.14
71194;BME280;58903;47.210;8.618;2023-07-28T01:37:04;93688.59;;;28.67;41.07
71194;BME280;58903;47.210;8.618;2023-07-28T01:39:32;93681.81;;;28.68;41.15
71194;BME280;58903;47.210;8.618;2023-07-28T01:41:59;93684.94;;;28.64;41.09
71194;BME280;58903;47.210;8.618;2023-07-28T01:44:29;93683.06;;;28.67;40.79
71194;BME280;58903;47.210;8.618;2023-07-28T01:46:56;93685.13;;;28.66;41.06
71194;BME280;58903;47.210;8.618;2023-07-28T01:49:23;93677.53;;;28.67;40.40
71194;BME280;58903;47.210;8.618;2023-07-28T01:51:49;93678.84;;;28.66;41.51
71194;BME280;58903;47.210;8.618;2023-07-28T01:54:26;93687.16;;;28.66;41.50
71194;BME280;58903;47.210;8.618;2023-07-28T01:56:56;93693.44;;;28.66;41.21
71194;BME280;58903;47.210;8.618;2023-07-28T01:59:26;93687.16;;;28.66;41.01
71194;BME280;58903;47.210;8.618;2023-07-28T02:01:53;93700.97;;;28.66;41.61
71194;BME280;58903;47.210;8.618;2023-07-28T02:04:22;93694.69;;;28.65;41.31
71194;BME280;58903;47.210;8.618;2023-07-28T02:06:56;93703.00;;;28.65;41.14
71194;BME280;58903;47.210;8.618;2023-07-28T02:09:37;93702.25;;;28.65;41.49
71194;BME280;58903;47.210;8.618;2023-07-28T02:12:03;93711.13;;;28.63;41.34
71194;BME280;58903;47.210;8.618;2023-07-28T02:18:18;93722.00;;;28.61;40.78
71194;BME280;58903;47.210;8.618;2023-07-28T02:20:48;93723.69;;;28.64;40.77
71194;BME280;58903;47.210;8.618;2023-07-28T02:23:15;93726.97;;;28.63;40.57
71194;BME280;58903;47.210;8.618;2023-07-28T02:25:47;93735.28;;;28.63;40.91
71194;BME280;58903;47.210;8.618;2023-07-28T02:28:17;93744.31;;;28.63;41.04
71194;BME280;58903;47.210;8.618;2023-07-28T02:30:45;93755.94;;;28.62;41.11
71194;BME280;58903;47.210;8.618;2023-07-28T02:33:11;93762.41;;;28.64;40.80
71194;BME280;58903;47.210;8.618;2023-07-28T02:35:56;93788.41;;;28.61;40.81
71194;BME280;58903;47.210;8.618;2023-07-28T02:38:28;93781.03;;;28.64;41.48
71194;BME280;58903;47.210;8.618;2023-07-28T02:41:00;93773.06;;;28.60;40.95
71194;BME280;58903;47.210;8.618;2023-07-28T02:43:36;93769.03;;;28.61;41.47
71194;BME280;58903;47.210;8.618;2023-07-28T02:46:06;93771.25;;;28.63;41.19
71194;BME280;58903;47.210;8.618;2023-07-28T02:48:49;93770.84;;;28.59;41.30
71194;BME280;58903;47.210;8.618;2023-07-28T02:51:23;93783.41;;;28.60;41.37
71194;BME280;58903;47.210;8.618;2023-07-28T02:53:56;93807.56;;;28.59;40.75
71194;BME280;58903;47.210;8.618;2023-07-28T02:56:26;93791.72;;;28.60;41.56
71194;BME280;58903;47.210;8.618;2023-07-28T02:58:58;93782.66;;;28.59;41.39
71194;BME280;58903;47.210;8.618;2023-07-28T03:01:40;93779.34;;;28.61;40.74
71194;BME280;58903;47.210;8.618;2023-07-28T03:04:16;93789.66;;;28.60;41.52
71194;BME280;58903;47.210;8.618;2023-07-28T03:06:42;93793.00;;;28.59;40.72
71194;BME280;58903;47.210;8.618;2023-07-28T03:09:21;93801.06;;;28.57;41.39
71194;BME280;58903;47.210;8.618;2023-07-28T03:11:48;93804.06;;;28.59;41.09
71194;BME280;58903;47.210;8.618;2023-07-28T03:14:23;93814.56;;;28.60;41.10
71194;BME280;58903;47.210;8.618;2023-07-28T03:16:52;93804.06;;;28.59;41.37
71194;BME280;58903;47.210;8.618;2023-07-28T03:19:17;93808.84;;;28.58;41.33
71194;BME280;58903;47.210;8.618;2023-07-28T03:21:46;93801.84;;;28.57;41.03
71194;BME280;58903;47.210;8.618;2023-07-28T03:24:26;93806.06;;;28.58;40.99
71194;BME280;58903;47.210;8.618;2023-07-28T03:27:01;93812.91;;;28.57;41.42
71194;BME280;58903;47.210;8.618;2023-07-28T03:29:37;93811.38;;;28.56;41.19
71194;BME280;58903;47.210;8.618;2023-07-28T03:32:14;93823.22;;;28.57;40.74
71194;BME280;58903;47.210;8.618;2023-07-28T03:34:57;93814.72;;;28.55;40.65
71194;BME280;58903;47.210;8.618;2023-07-28T03:37:32;93813.22;;;28.54;40.78
71194;BME280;58903;47.210;8.618;2023-07-28T03:40:04;93819.50;;;28.54;40.78
71194;BME280;58903;47.210;8.618;2023-07-28T03:42:31;93813.97;;;28.54;40.83
71194;BME280;58903;47.210;8.618;2023-07-28T03:44:57;93812.69;;;28.55;41.21
71194;BME280;58903;47.210;8.618;2023-07-28T03:47:23;93811.00;;;28.52;41.26
71194;BME280;58903;47.210;8.618;2023-07-28T03:49:49;93819.50;;;28.54;40.71
71194;BME280;58903;47.210;8.618;2023-07-28T03:52:15;93815.78;;;28.52;41.13
71194;BME280;58903;47.210;8.618;2023-07-28T03:54:43;93823.56;;;28.53;40.87
71194;BME280;58903;47.210;8.618;2023-07-28T03:57:09;93829.63;;;28.52;41.41
71194;BME280;58903;47.210;8.618;2023-07-28T03:59:36;93830.56;;;28.54;40.96
71194;BME280;58903;47.210;8.618;2023-07-28T04:02:04;93837.41;;;28.53;41.45
71194;BME280;58903;47.210;8.618;2023-07-28T04:04:35;93832.38;;;28.52;41.08
71194;BME280;58903;47.210;8.618;2023-07-28T04:07:06;93826.13;;;28.51;41.11
71194;BME280;58903;47.210;8.618;2023-07-28T04:09:32;93832.38;;;28.52;41.08
71194;BME280;58903;47.210;8.618;2023-07-28T04:11:58;93836.66;;;28.53;41.33
71194;BME280;58903;47.210;8.618;2023-07-28T04:14:28;93844.94;;;28.53;41.31
71194;BME280;58903;47.210;8.618;2023-07-28T04:16:56;93846.22;;;28.52;40.91
71194;BME280;58903;47.210;8.618;2023-07-28T04:19:22;93842.75;;;28.51;40.84
71194;BME280;58903;47.210;8.618;2023-07-28T04:21:48;93838.66;;;28.52;41.09
71194;BME280;58903;47.210;8.618;2023-07-28T04:24:14;93846.97;;;28.52;40.64
71194;BME280;58903;47.210;8.618;2023-07-28T04:26:40;93844.94;;;28.53;40.84
71194;BME280;58903;47.210;8.618;2023-07-28T04:29:09;93839.41;;;28.53;41.55
71194;BME280;58903;47.210;8.618;2023-07-28T04:31:35;93831.47;;;28.49;40.88
71194;BME280;58903;47.210;8.618;2023-07-28T04:34:04;93839.78;;;28.49;41.11
71194;BME280;58903;47.210;8.618;2023-07-28T04:36:30;93843.25;;;28.50;41.63
71194;BME280;58903;47.210;8.618;2023-07-28T04:38:56;93845.31;;;28.49;41.02
71194;BME280;58903;47.210;8.618;2023-07-28T04:41:25;93843.25;;;28.50;40.93
71194;BME280;58903;47.210;8.618;2023-07-28T04:43:51;93839.78;;;28.49;41.62
71194;BME280;58903;47.210;8.618;2023-07-28T04:46:20;93836.06;;;28.47;41.39
71194;BME280;58903;47.210;8.618;2023-07-28T04:48:47;93839.78;;;28.49;40.77
71194;BME280;58903;47.210;8.618;2023-07-28T04:51:13;93836.06;;;28.47;41.33
71194;BME280;58903;47.210;8.618;2023-07-28T04:53:39;93837.53;;;28.48;40.87
71194;BME280;58903;47.210;8.618;2023-07-28T04:56:07;93834.25;;;28.49;40.96
71194;BME280;58903;47.210;8.618;2023-07-28T04:58:40;93835.72;;;28.50;41.01
71194;BME280;58903;47.210;8.618;2023-07-28T05:01:06;93842.75;;;28.51;40.69
71194;BME280;58903;47.210;8.618;2023-07-28T05:03:34;93841.59;;;28.47;40.90
71194;BME280;58903;47.210;8.618;2023-07-28T05:06:03;93847.53;;;28.51;40.65
71194;BME280;58903;47.210;8.618;2023-07-28T05:08:30;93836.44;;;28.51;41.07
71194;BME280;58903;47.210;8.618;2023-07-28T05:10:58;93842.75;;;28.51;40.93
71194;BME280;58903;47.210;8.618;2023-07-28T05:13:24;93837.53;;;28.48;41.32
71194;BME280;58903;47.210;8.618;2023-07-28T05:15:52;93836.06;;;28.47;41.09
71194;BME280;58903;47.210;8.618;2023-07-28T05:18:17;93842.53;;;28.49;41.43
71194;BME280;58903;47.210;8.618;2023-07-28T05:20:44;93832.34;;;28.44;40.87
71194;BME280;58903;47.210;8.618;2023-07-28T05:23:12;93835.13;;;28.44;41.08
71194;BME280;58903;47.210;8.618;2023-07-28T05:25:38;93835.31;;;28.46;41.42
71194;BME280;58903;47.210;8.618;2023-07-28T05:28:11;93830.53;;;28.47;41.24
71194;BME280;58903;47.210;8.618;2023-07-28T05:30:37;93839.03;;;28.49;40.39
71194;BME280;58903;47.210;8.618;2023-07-28T05:33:15;93840.50;;;28.50;41.26
71194;BME280;58903;47.210;8.618;2023-07-28T05:36:02;93838.28;;;28.48;41.28
71194;BME280;58903;47.210;8.618;2023-07-28T05:38:36;93837.19;;;28.51;40.50
71194;BME280;58903;47.210;8.618;2023-07-28T05:41:05;93846.78;;;28.50;41.37
71194;BME280;58903;47.210;8.618;2023-07-28T05:43:31;93849.72;;;28.52;41.07
71194;BME280;58903;47.210;8.618;2023-07-28T05:46:04;93851.75;;;28.52;40.67
71194;BME280;58903;47.210;8.618;2023-07-28T05:48:40;93851.03;;;28.51;41.24
71194;BME280;58903;47.210;8.618;2023-07-28T05:51:08;93858.03;;;28.52;41.10
71194;BME280;58903;47.210;8.618;2023-07-28T05:53:54;93855.28;;;28.52;41.02
71194;BME280;58903;47.210;8.618;2023-07-28T05:56:23;93851.44;;;28.55;41.01
71194;BME280;58903;47.210;8.618;2023-07-28T05:59:01;93849.72;;;28.52;40.75
71194;BME280;58903;47.210;8.618;2023-07-28T06:01:32;93857.09;;;28.50;41.14
71194;BME280;58903;47.210;8.618;2023-07-28T06:04:04;93857.44;;;28.46;40.83
71194;BME280;58903;47.210;8.618;2023-07-28T06:06:40;93863.72;;;28.47;41.03
71194;BME280;58903;47.210;8.618;2023-07-28T06:09:14;93861.69;;;28.47;40.86
71194;BME280;58903;47.210;8.618;2023-07-28T06:15:14;93865.34;;;28.42;41.28
71194;BME280;58903;47.210;8.618;2023-07-28T06:17:46;93865.16;;;28.40;41.51
71194;BME280;58903;47.210;8.618;2023-07-28T06:20:13;93870.88;;;28.42;41.26
71194;BME280;58903;47.210;8.618;2023-07-28T06:22:40;93872.34;;;28.43;40.85
71194;BME280;58903;47.210;8.618;2023-07-28T06:25:10;93855.03;;;28.43;41.41
71194;BME280;58903;47.210;8.618;2023-07-28T06:27:36;93861.28;;;28.43;41.45
71194;BME280;58903;47.210;8.618;2023-07-28T06:30:02;93862.22;;;28.46;41.22
71194;BME280;58903;47.210;8.618;2023-07-28T06:32:39;93860.22;;;28.46;41.18
71194;BME280;58903;47.210;8.618;2023-07-28T06:35:05;93876.25;;;28.48;41.24
71194;BME280;58903;47.210;8.618;2023-07-28T06:37:34;93866.69;;;28.49;40.73
71194;BME280;58903;47.210;8.618;2023-07-28T06:40:15;93863.72;;;28.47;40.93
71194;BME280;58903;47.210;8.618;2023-07-28T06:42:52;93875.94;;;28.51;41.50
71194;BME280;58903;47.210;8.618;2023-07-28T06:45:27;93873.16;;;28.51;40.81
71194;BME280;58903;47.210;8.618;2023-07-28T06:48:00;93870.94;;;28.50;40.83
71194;BME280;58903;47.210;8.618;2023-07-28T06:50:29;93879.41;;;28.52;40.52
71194;BME280;58903;47.210;8.618;2023-07-28T06:52:58;93884.94;;;28.52;40.77
71194;BME280;58903;47.210;8.618;2023-07-28T06:55:28;93880.91;;;28.53;41.29
71194;BME280;58903;47.210;8.618;2023-07-28T06:57:56;93887.91;;;28.54;40.90
71194;BME280;58903;47.210;8.618;2023-07-28T07:00:32;93894.19;;;28.54;41.24
71194;BME280;58903;47.210;8.618;2023-07-28T07:03:04;93886.44;;;28.53;40.82
71194;BME280;58903;47.210;8.618;2023-07-28T07:05:32;93888.66;;;28.54;41.06
71194;BME280;58903;47.210;8.618;2023-07-28T07:08:10;93901.47;;;28.57;40.37
71194;BME280;58903;47.210;8.618;2023-07-28T07:11:00;93888.88;;;28.56;40.93
71194;BME280;58903;47.210;8.618;2023-07-28T07:17:25;93898.69;;;28.57;40.97
71194;BME280;58903;47.210;8.618;2023-07-28T07:20:00;93897.91;;;28.57;40.84
71194;BME280;58903;47.210;8.618;2023-07-28T07:22:41;93894.94;;;28.55;40.79
71194;BME280;58903;47.210;8.618;2023-07-28T07:25:12;93908.47;;;28.58;41.22
71194;BME280;58903;47.210;8.618;2023-07-28T07:27:38;93904.22;;;28.57;40.85
71194;BME280;58903;47.210;8.618;2023-07-28T07:30:14;93907.00;;;28.57;40.89
71194;BME280;58903;47.210;8.618;2023-07-28T07:32:47;93911.00;;;28.56;40.46
71194;BME280;58903;47.210;8.618;2023-07-28T07:35:24;93908.22;;;28.56;41.19
71194;BME280;58903;47.210;8.618;2023-07-28T07:38:08;93916.53;;;28.56;40.74
71194;BME280;58903;47.210;8.618;2023-07-28T07:40:47;93906.75;;;28.55;41.03
71194;BME280;58903;47.210;8.618;2023-07-28T07:43:22;93908.22;;;28.56;40.42
71194;BME280;58903;47.210;8.618;2023-07-28T07:45:57;93905.28;;;28.54;40.91
71194;BME280;58903;47.210;8.618;2023-07-28T07:48:25;93909.75;;;28.57;40.71
71194;BME280;58903;47.210;8.618;2023-07-28T07:50:51;93908.22;;;28.56;40.66
71194;BME280;58903;47.210;8.618;2023-07-28T07:53:17;93906.75;;;28.55;41.43
71194;BME280;58903;47.210;8.618;2023-07-28T07:55:48;93903.44;;;28.57;40.85
71194;BME280;58903;47.210;8.618;2023-07-28T07:58:16;93906.44;;;28.59;40.94
71194;BME280;58903;47.210;8.618;2023-07-28T08:00:51;93909.22;;;28.59;41.07
71194;BME280;58903;47.210;8.618;2023-07-28T08:03:18;93899.22;;;28.56;41.24
71194;BME280;58903;47.210;8.618;2023-07-28T08:05:46;93908.47;;;28.58;40.72
71194;BME280;58903;47.210;8.618;2023-07-28T08:08:44;93914.00;;;28.58;40.66
71194;BME280;58903;47.210;8.618;2023-07-28T08:11:52;93914.75;;;28.59;40.54
71194;BME280;58903;47.210;8.618;2023-07-28T08:14:20;93907.75;;;28.58;40.56
71194;BME280;58903;47.210;8.618;2023-07-28T08:16:55;93910.28;;;28.56;41.28
71194;BME280;58903;47.210;8.618;2023-07-28T08:19:21;93909.22;;;28.59;40.79
71194;BME280;58903;47.210;8.618;2023-07-28T08:21:48;93916.97;;;28.60;41.10
71194;BME280;58903;47.210;8.618;2023-07-28T08:24:18;93906.63;;;28.61;40.82
71194;BME280;58903;47.210;8.618;2023-07-28T08:26:45;93903.66;;;28.59;40.88
71194;BME280;58903;47.210;8.618;2023-07-28T08:29:16;93912.91;;;28.61;41.01
71194;BME280;58903;47.210;8.618;2023-07-28T08:31:43;93911.41;;;28.60;40.81
71194;BME280;58903;47.210;8.618;2023-07-28T08:34:10;93913.66;;;28.62;41.35
71194;BME280;58903;47.210;8.618;2023-07-28T08:36:36;93915.34;;;28.65;40.60
71194;BME280;58903;47.210;8.618;2023-07-28T08:39:02;93908.13;;;28.62;41.41
71194;BME280;58903;47.210;8.618;2023-07-28T08:42:01;93910.34;;;28.63;41.02
71194;BME280;58903;47.210;8.618;2023-07-28T08:44:54;93909.59;;;28.63;41.49
71194;BME280;58903;47.210;8.618;2023-07-28T08:47:45;93907.59;;;28.63;41.37
71194;BME280;58903;47.210;8.618;2023-07-28T08:50:13;93911.84;;;28.64;40.95
71194;BME280;58903;47.210;8.618;2023-07-28T08:52:43;93920.16;;;28.64;40.90
71194;BME280;58903;47.210;8.618;2023-07-28T08:55:10;93914.06;;;28.66;40.86
71194;BME280;58903;47.210;8.618;2023-07-28T08:57:36;93906.50;;;28.66;40.31
71194;BME280;58903;47.210;8.618;2023-07-28T09:00:38;93916.66;;;28.71;40.52
71194;BME280;58903;47.210;8.618;2023-07-28T09:03:22;93902.44;;;28.67;41.27
71194;BME280;58903;47.210;8.618;2023-07-28T09:05:48;93912.81;;;28.74;40.67
71194;BME280;58903;47.210;8.618;2023-07-28T09:08:24;93921.13;;;28.74;40.93
71194;BME280;58903;47.210;8.618;2023-07-28T09:11:02;93913.19;;;28.71;40.48
71194;BME280;58903;47.210;8.618;2023-07-28T09:13:41;93908.97;;;28.77;40.98
71194;BME280;58903;47.210;8.618;2023-07-28T09:19:20;93908.38;;;28.71;40.30
71194;BME280;58903;47.210;8.618;2023-07-28T09:22:24;93918.38;;;28.74;41.17
71194;BME280;58903;47.210;8.618;2023-07-28T09:25:12;93922.75;;;28.70;40.91
71194;BME280;58903;47.210;8.618;2023-07-28T09:27:45;93915.78;;;28.76;40.78
71194;BME280;58903;47.210;8.618;2023-07-28T09:30:17;93927.06;;;28.78;41.18
71194;BME280;58903;47.210;8.618;2023-07-28T09:32:48;93911.75;;;28.77;40.77
71194;BME280;58903;47.210;8.618;2023-07-28T09:35:47;93917.69;;;28.81;40.78
71194;BME280;58903;47.210;8.618;2023-07-28T09:38:43;93920.44;;;28.81;40.95
71194;BME280;58903;47.210;8.618;2023-07-28T09:41:11;93912.28;;;28.76;40.89
71194;BME280;58903;47.210;8.618;2023-07-28T09:43:46;93915.03;;;28.76;40.78
71194;BME280;58903;47.210;8.618;2023-07-28T09:46:23;93918.56;;;28.76;40.68
71194;BME280;58903;47.210;8.618;2023-07-28T09:49:10;93913.22;;;28.78;40.91
71194;BME280;58903;47.210;8.618;2023-07-28T09:51:47;93912.16;;;28.81;41.30
71194;BME280;58903;47.210;8.618;2023-07-28T09:54:46;93909.03;;;28.85;40.64
71194;BME280;58903;47.210;8.618;2023-07-28T09:58:08;93900.72;;;28.85;40.15
71194;BME280;58903;47.210;8.618;2023-07-28T10:00:29;93898.69;;;28.85;40.66
71194;BME280;58903;47.210;8.618;2023-07-28T10:06:23;93891.66;;;28.84;41.09
71194;BME280;58903;47.210;8.618;2023-07-28T10:09:01;93903.28;;;28.83;41.13
71194;BME280;58903;47.210;8.618;2023-07-28T10:11:43;93897.56;;;28.81;41.29
71194;BME280;58903;47.210;8.618;2023-07-28T10:16:58;93905.13;;;28.80;40.77
71194;BME280;58903;47.210;8.618;2023-07-28T10:19:25;93902.34;;;28.80;41.44
71194;BME280;58903;47.210;8.618;2023-07-28T10:22:02;93908.06;;;28.82;41.07
71194;BME280;58903;47.210;8.618;2023-07-28T10:25:01;93899.78;;;28.82;41.54
71194;BME280;58903;47.210;8.618;2023-07-28T10:28:00;93907.88;;;28.80;40.84
71194;BME280;58903;47.210;8.618;2023-07-28T10:30:52;93909.56;;;28.83;41.30
71194;BME280;58903;47.210;8.618;2023-07-28T10:33:50;93913.63;;;28.82;41.14
71194;BME280;58903;47.210;8.618;2023-07-28T10:39:16;93909.38;;;28.81;40.73
71194;BME280;58903;47.210;8.618;2023-07-28T10:42:06;93902.34;;;28.80;40.48
71194;BME280;58903;47.210;8.618;2023-07-28T10:44:33;93898.13;;;28.79;41.18
71194;BME280;58903;47.210;8.618;2023-07-28T10:46:59;93896.63;;;28.78;40.97
71194;BME280;58903;47.210;8.618;2023-07-28T10:49:25;93906.22;;;28.77;41.07
71194;BME280;58903;47.210;8.618;2023-07-28T10:51:56;93894.91;;;28.75;40.97
71194;BME280;58903;47.210;8.618;2023-07-28T10:54:22;93893.84;;;28.78;41.05
71194;BME280;58903;47.210;8.618;2023-07-28T10:56:49;93891.28;;;28.80;40.42
71194;BME280;58903;47.210;8.618;2023-07-28T10:59:15;93889.81;;;28.79;41.84
71194;BME280;58903;47.210;8.618;2023-07-28T11:01:44;93892.56;;;28.79;41.15
71194;BME280;58903;47.210;8.618;2023-07-28T11:06:47;93901.06;;;28.81;41.41
71194;BME280;58903;47.210;8.618;2023-07-28T11:09:19;93894.78;;;28.81;41.89
71194;BME280;58903;47.210;8.618;2023-07-28T11:11:46;93897.00;;;28.82;41.27
71194;BME280;58903;47.210;8.618;2023-07-28T11:14:15;93894.25;;;28.82;41.34
71194;BME280;58903;47.210;8.618;2023-07-28T11:16:42;93895.94;;;28.85;41.62
71194;BME280;58903;47.210;8.618;2023-07-28T11:19:12;93885.41;;;28.84;41.50
71194;BME280;58903;47.210;8.618;2023-07-28T11:21:42;93897.41;;;28.86;41.51
71194;BME280;58903;47.210;8.618;2023-07-28T11:24:19;93892.78;;;28.81;40.97
71194;BME280;58903;47.210;8.618;2023-07-28T11:26:49;93900.72;;;28.85;41.35
71194;BME280;58903;47.210;8.618;2023-07-28T11:29:15;93895.19;;;28.85;41.10
71194;BME280;58903;47.210;8.618;2023-07-28T11:31:42;93891.66;;;28.84;41.34
71194;BME280;58903;47.210;8.618;2023-07-28T11:34:16;93900.16;;;28.86;41.45
71194;BME280;58903;47.210;8.618;2023-07-28T11:36:50;93889.09;;;28.86;41.38
71194;BME280;58903;47.210;8.618;2023-07-28T11:39:20;93890.59;;;28.87;40.93
71194;BME280;58903;47.210;8.618;2023-07-28T11:41:48;93889.84;;;28.87;41.65
71194;BME280;58903;47.210;8.618;2023-07-28T11:44:18;93886.31;;;28.86;41.21
71194;BME280;58903;47.210;8.618;2023-07-28T11:46:45;93892.06;;;28.88;42.01
71194;BME280;58903;47.210;8.618;2023-07-28T11:49:21;93894.28;;;28.90;40.65
71194;BME280;58903;47.210;8.618;2023-07-28T11:51:59;93886.00;;;28.90;41.36
71194;BME280;58903;47.210;8.618;2023-07-28T11:54:29;93871.41;;;28.89;41.63
71194;BME280;58903;47.210;8.618;2023-07-28T11:56:56;93875.66;;;28.90;41.48
71194;BME280;58903;47.210;8.618;2023-07-28T11:59:25;93880.09;;;28.93;40.93
71194;BME280;58903;47.210;8.618;2023-07-28T12:01:59;93871.78;;;28.93;41.42
71194;BME280;58903;47.210;8.618;2023-07-28T12:04:36;93880.09;;;28.93;40.78
71194;BME280;58903;47.210;8.618;2023-07-28T12:07:12;93877.72;;;28.97;41.41
71194;BME280;58903;47.210;8.618;2023-07-28T12:09:50;93872.94;;;28.98;41.08
71194;BME280;58903;47.210;8.618;2023-07-28T12:12:31;93872.94;;;28.98;41.42
71194;BME280;58903;47.210;8.618;2023-07-28T12:18:16;93858.53;;;28.99;41.89
71194;BME280;58903;47.210;8.618;2023-07-28T12:20:47;93854.47;;;29.00;41.72
71194;BME280;58903;47.210;8.618;2023-07-28T12:23:18;93858.53;;;28.99;41.67
71194;BME280;58903;47.210;8.618;2023-07-28T12:25:46;93866.13;;;28.99;41.45
71194;BME280;58903;47.210;8.618;2023-07-28T12:28:14;93871.28;;;29.02;41.46
71194;BME280;58903;47.210;8.618;2023-07-28T12:30:40;93863.19;;;29.04;41.16
71194;BME280;58903;47.210;8.618;2023-07-28T12:33:07;93862.44;;;29.04;41.21
71194;BME280;58903;47.210;8.618;2023-07-28T12:35:38;93875.34;;;29.01;41.56
71194;BME280;58903;47.210;8.618;2023-07-28T12:38:10;93865.56;;;29.00;41.44
71194;BME280;58903;47.210;8.618;2023-07-28T12:40:36;93872.97;;;29.05;41.03
71194;BME280;58903;47.210;8.618;2023-07-28T12:43:04;93878.72;;;29.07;40.98
71194;BME280;58903;47.210;8.618;2023-07-28T12:45:35;93878.16;;;29.09;41.26
71194;BME280;58903;47.210;8.618;2023-07-28T12:48:05;93872.06;;;29.10;41.78
71194;BME280;58903;47.210;8.618;2023-07-28T12:50:37;93878.91;;;29.09;40.76
71194;BME280;58903;47.210;8.618;2023-07-28T12:53:06;93878.16;;;29.09;41.90
71194;BME280;58903;47.210;8.618;2023-07-28T12:55:31;93873.16;;;29.07;41.52
71194;BME280;58903;47.210;8.618;2023-07-28T12:58:02;93866.53;;;29.10;41.60
71194;BME280;58903;47.210;8.618;2023-07-28T13:00:35;93866.72;;;29.13;40.54
71194;BME280;58903;47.210;8.618;2023-07-28T13:03:08;93858.22;;;29.10;41.41
71194;BME280;58903;47.210;8.618;2023-07-28T13:05:56;93861.91;;;29.13;41.12
71194;BME280;58903;47.210;8.618;2023-07-28T13:08:23;93857.50;;;29.10;40.97
71194;BME280;58903;47.210;8.618;2023-07-28T13:10:58;93845.66;;;29.09;41.43
71194;BME280;58903;47.210;8.618;2023-07-28T13:13:39;93852.69;;;29.10;41.51
71194;BME280;58903;47.210;8.618;2023-07-28T13:16:09;93852.16;;;29.12;41.45
71194;BME280;58903;47.210;8.618;2023-07-28T13:18:35;93848.81;;;29.14;41.44
71194;BME280;58903;47.210;8.618;2023-07-28T13:21:01;93854.38;;;29.14;41.26
71194;BME280;58903;47.210;8.618;2023-07-28T13:23:28;93850.28;;;29.15;40.88
71194;BME280;58903;47.210;8.618;2023-07-28T13:26:01;93848.81;;;29.14;41.40
71194;BME280;58903;47.210;8.618;2023-07-28T13:28:33;93848.69;;;29.19;41.28
71194;BME280;58903;47.210;8.618;2023-07-28T13:31:03;93856.66;;;29.23;41.04
71194;BME280;58903;47.210;8.618;2023-07-28T13:33:43;93851.31;;;29.25;40.98
71194;BME280;58903;47.210;8.618;2023-07-28T13:36:26;93846.50;;;29.25;41.18
71194;BME280;58903;47.210;8.618;2023-07-28T13:39:04;93846.16;;;29.29;41.07
71194;BME280;58903;47.210;8.618;2023-07-28T13:41:41;93843.38;;;29.29;40.73
71194;BME280;58903;47.210;8.618;2023-07-28T13:44:09;93838.03;;;29.31;40.71
71194;BME280;58903;47.210;8.618;2023-07-28T13:46:45;93832.47;;;29.31;40.61
71194;BME280;58903;47.210;8.618;2023-07-28T13:49:16;93827.69;;;29.31;41.15
71194;BME280;58903;47.210;8.618;2023-07-28T13:51:43;93831.41;;;29.34;41.14
71194;BME280;58903;47.210;8.618;2023-07-28T13:54:14;93819.75;;;29.35;41.07
71194;BME280;58903;47.210;8.618;2023-07-28T13:56:44;93817.72;;;29.36;40.50
71194;BME280;58903;47.210;8.618;2023-07-28T13:59:13;93818.66;;;29.38;41.29
71194;BME280;58903;47.210;8.618;2023-07-28T14:01:41;93811.06;;;29.39;41.32
71194;BME280;58903;47.210;8.618;2023-07-28T14:04:07;93816.81;;;29.41;41.12
71194;BME280;58903;47.210;8.618;2023-07-28T14:06:33;93822.75;;;29.45;40.99
71194;BME280;58903;47.210;8.618;2023-07-28T14:09:01;93823.31;;;29.51;40.69